createdAt,value
2022-10-13T00:00:48.377Z,74.04
2022-10-13T00:03:16.027Z,74.51
2022-10-13T00:05:44.985Z,74.26
2022-10-13T00:08:12.845Z,74.85
2022-10-13T00:10:40.816Z,74.93
2022-10-13T00:13:08.786Z,74.81
2022-10-13T00:15:40.255Z,74.91
2022-10-13T00:18:08.078Z,75.41
2022-10-13T00:20:35.862Z,75.04
2022-10-13T00:23:02.701Z,75.06
2022-10-13T00:25:29.556Z,74.45
2022-10-13T00:27:56.296Z,75.68
2022-10-13T00:30:23.339Z,75.03
2022-10-13T00:32:50.180Z,75.31
2022-10-13T00:35:17.023Z,75.41
2022-10-13T00:37:44.058Z,75.94
2022-10-13T00:40:11.366Z,75.42
2022-10-13T00:42:41.463Z,75.36
2022-10-13T00:45:21.786Z,75.60
2022-10-13T00:47:54.393Z,75.88
2022-10-13T00:50:32.177Z,76.00
2022-10-13T00:53:01.278Z,75.57
2022-10-13T00:55:32.159Z,76.27
2022-10-13T00:58:05.445Z,76.01
2022-10-13T01:00:34.069Z,75.91
2022-10-13T01:03:03.290Z,76.27
2022-10-13T01:05:31.168Z,75.40
2022-10-13T01:07:59.734Z,75.78
2022-10-13T01:10:54.020Z,76.01
2022-10-13T01:13:52.759Z,75.35
2022-10-13T01:16:30.092Z,74.87
2022-10-13T01:19:02.987Z,76.21
2022-10-13T01:22:16.278Z,75.31
2022-10-13T01:24:45.007Z,76.03
2022-10-13T01:27:14.788Z,76.24
2022-10-13T01:30:02.907Z,75.42
2022-10-13T01:32:53.548Z,76.56
2022-10-13T01:35:43.037Z,76.15
2022-10-13T01:38:26.608Z,76.46
2022-10-13T01:41:05.318Z,76.32
2022-10-13T01:43:40.547Z,76.69
2022-10-13T01:46:20.254Z,76.12
2022-10-13T01:48:46.989Z,76.72
2022-10-13T01:51:18.936Z,76.71
2022-10-13T01:53:47.714Z,76.98
2022-10-13T01:56:14.548Z,77.41
2022-10-13T01:58:41.372Z,77.50
2022-10-13T02:01:33.007Z,77.50
2022-10-13T02:04:18.254Z,77.00
2022-10-13T02:06:51.422Z,76.83
2022-10-13T02:09:28.555Z,76.70
2022-10-13T02:12:16.294Z,76.48
2022-10-13T02:14:46.277Z,75.80
2022-10-13T02:17:13.432Z,75.78
2022-10-13T02:19:40.550Z,75.35
2022-10-13T02:22:09.804Z,76.08
2022-10-13T02:24:36.545Z,76.12
2022-10-13T02:27:06.171Z,76.65
2022-10-13T02:29:33.221Z,76.48
2022-10-13T02:32:00.302Z,76.38
2022-10-13T02:34:27.055Z,76.43
2022-10-13T02:36:53.802Z,76.14
2022-10-13T02:39:20.578Z,76.31
2022-10-13T02:41:47.367Z,76.60
2022-10-13T02:44:14.069Z,76.41
2022-10-13T02:46:41.631Z,77.05
2022-10-13T02:49:10.134Z,77.51
2022-10-13T02:51:40.113Z,77.75
2022-10-13T02:54:07.298Z,77.23
2022-10-13T02:56:34.189Z,77.79
2022-10-13T02:59:00.902Z,77.97
2022-10-13T03:01:27.959Z,76.86
2022-10-13T03:03:55.322Z,77.35
2022-10-13T03:06:22.680Z,77.46
2022-10-13T03:08:49.501Z,77.40
2022-10-13T03:11:16.338Z,77.33
2022-10-13T03:13:43.769Z,77.74
2022-10-13T03:16:10.452Z,78.19
2022-10-13T03:18:37.172Z,77.55
2022-10-13T03:21:05.935Z,77.82
2022-10-13T03:23:32.903Z,77.22
2022-10-13T03:26:01.031Z,78.29
2022-10-13T03:28:27.848Z,78.59
2022-10-13T03:31:06.152Z,79.40
2022-10-13T03:33:35.276Z,77.77
2022-10-13T03:36:04.946Z,77.74
2022-10-13T03:38:34.789Z,78.09
2022-10-13T03:41:09.288Z,77.50
2022-10-13T03:43:36.349Z,78.23
2022-10-13T03:46:05.623Z,78.26
2022-10-13T03:48:33.953Z,77.75
2022-10-13T03:51:04.224Z,77.70
2022-10-13T03:53:30.926Z,77.77
2022-10-13T03:55:57.683Z,76.99
2022-10-13T03:58:25.802Z,77.06
2022-10-13T04:00:52.621Z,77.15
2022-10-13T04:03:19.473Z,77.63
2022-10-13T04:05:46.597Z,77.53
2022-10-13T04:08:13.819Z,78.32
2022-10-13T04:10:41.031Z,78.07
2022-10-13T04:13:08.375Z,78.29
2022-10-13T04:15:39.604Z,76.39
2022-10-13T04:18:08.343Z,75.92
2022-10-13T04:20:39.736Z,76.05
2022-10-13T04:23:06.782Z,74.88
2022-10-13T04:25:37.850Z,75.21
2022-10-13T04:28:06.291Z,75.02
2022-10-13T04:30:34.407Z,75.18
2022-10-13T04:33:01.229Z,75.56
2022-10-13T04:35:27.960Z,76.01
2022-10-13T04:37:55.529Z,75.51
2022-10-13T04:40:22.348Z,75.93
2022-10-13T04:42:49.052Z,75.39
2022-10-13T04:45:15.954Z,75.53
2022-10-13T04:47:42.918Z,75.25
2022-10-13T04:50:10.272Z,74.90
2022-10-13T04:52:37.037Z,74.98
2022-10-13T04:55:04.353Z,74.76
2022-10-13T04:57:31.105Z,75.44
2022-10-13T04:59:57.860Z,76.02
2022-10-13T05:02:24.757Z,75.66
2022-10-13T05:04:51.515Z,75.21
2022-10-13T05:07:18.871Z,75.47
2022-10-13T05:09:46.257Z,75.68
2022-10-13T05:12:13.037Z,74.97
2022-10-13T05:14:39.749Z,74.63
2022-10-13T05:17:06.565Z,74.82
2022-10-13T05:19:33.342Z,75.11
2022-10-13T05:22:00.069Z,74.58
2022-10-13T05:24:28.491Z,74.71
2022-10-13T05:26:55.202Z,74.79
2022-10-13T05:29:21.946Z,75.06
2022-10-13T05:31:48.830Z,74.30
2022-10-13T05:34:15.607Z,74.46
2022-10-13T05:36:42.386Z,74.25
2022-10-13T05:39:10.009Z,74.10
2022-10-13T05:41:36.783Z,73.63
2022-10-13T05:44:06.564Z,73.38
2022-10-13T05:46:33.506Z,73.00
2022-10-13T05:49:00.291Z,73.17
2022-10-13T05:51:36.911Z,72.97
2022-10-13T05:54:06.505Z,73.15
2022-10-13T05:56:39.202Z,73.31
2022-10-13T05:59:10.577Z,73.13
2022-10-13T06:01:40.065Z,73.97
2022-10-13T06:04:11.820Z,73.54
2022-10-13T06:06:38.932Z,73.24
2022-10-13T06:09:06.736Z,72.88
2022-10-13T06:11:33.474Z,72.22
2022-10-13T06:14:00.225Z,72.41
2022-10-13T06:16:26.956Z,71.99
2022-10-13T06:18:53.740Z,71.84
2022-10-13T06:21:20.463Z,71.40
2022-10-13T06:23:47.236Z,71.74
2022-10-13T06:26:13.936Z,71.74
2022-10-13T06:28:40.670Z,71.48
2022-10-13T06:31:07.460Z,70.76
2022-10-13T06:33:34.594Z,71.15
2022-10-13T06:36:05.978Z,70.16
2022-10-13T06:38:33.593Z,70.55
2022-10-13T06:41:04.351Z,69.84
2022-10-13T06:43:38.946Z,68.72
2022-10-13T06:46:07.101Z,67.50
2022-10-13T06:48:33.833Z,66.74
2022-10-13T06:51:04.857Z,65.24
2022-10-13T06:53:32.214Z,65.82
2022-10-13T06:56:00.424Z,66.59
2022-10-13T06:58:27.531Z,67.07
2022-10-13T07:00:57.439Z,67.44
2022-10-13T07:03:24.384Z,67.69
2022-10-13T07:05:51.250Z,67.28
2022-10-13T07:08:20.095Z,67.89
2022-10-13T07:10:46.813Z,67.72
2022-10-13T07:13:13.591Z,67.39
2022-10-13T07:15:41.211Z,66.15
2022-10-13T07:18:08.258Z,66.63
2022-10-13T07:20:35.191Z,66.22
2022-10-13T07:23:02.039Z,65.89
2022-10-13T07:25:28.794Z,65.44
2022-10-13T07:27:55.674Z,64.10
2022-10-13T07:30:22.874Z,64.32
2022-10-13T07:32:49.918Z,63.32
2022-10-13T07:35:16.712Z,62.67
2022-10-13T07:37:43.558Z,63.79
2022-10-13T07:40:10.979Z,62.82
2022-10-13T07:42:37.675Z,62.85
2022-10-13T07:45:04.869Z,62.39
2022-10-13T07:47:31.563Z,61.50
2022-10-13T07:49:58.380Z,61.49
2022-10-13T07:52:25.214Z,61.61
2022-10-13T07:54:51.975Z,61.09
2022-10-13T07:57:18.714Z,60.87
2022-10-13T07:59:45.775Z,61.44
2022-10-13T08:02:12.492Z,61.27
2022-10-13T08:04:39.282Z,61.01
2022-10-13T08:07:07.300Z,60.36
2022-10-13T08:09:34.708Z,59.94
2022-10-13T08:12:02.644Z,59.38
2022-10-13T08:14:30.804Z,59.25
2022-10-13T08:16:58.129Z,59.65
2022-10-13T08:19:25.248Z,59.15
2022-10-13T08:21:58.128Z,58.44
2022-10-13T08:24:27.096Z,58.41
2022-10-13T08:26:54.334Z,57.72
2022-10-13T08:29:23.000Z,56.71
2022-10-13T08:31:54.298Z,56.12
2022-10-13T08:34:22.694Z,55.46
2022-10-13T08:36:49.979Z,55.37
2022-10-13T08:39:16.849Z,56.51
2022-10-13T08:41:44.221Z,55.75
2022-10-13T08:47:29.823Z,53.51
2022-10-13T08:50:05.185Z,53.87
2022-10-13T08:53:04.221Z,53.33
2022-10-13T08:55:37.901Z,52.75
2022-10-13T08:58:14.526Z,52.05
2022-10-13T09:00:42.236Z,52.19
2022-10-13T09:03:24.292Z,51.33
2022-10-13T09:06:22.846Z,50.79
2022-10-13T09:08:53.951Z,50.68
2022-10-13T09:11:21.331Z,50.15
2022-10-13T09:13:48.323Z,49.47
2022-10-13T09:16:15.078Z,49.19
2022-10-13T09:18:42.018Z,49.12
2022-10-13T09:21:24.600Z,48.86
2022-10-13T09:23:52.659Z,48.34
2022-10-13T09:26:23.707Z,47.73
2022-10-13T09:28:51.387Z,47.59
2022-10-13T09:31:25.023Z,46.35
2022-10-13T09:34:03.201Z,45.77
2022-10-13T09:36:29.980Z,47.10
2022-10-13T09:39:14.947Z,47.02
2022-10-13T09:41:43.708Z,46.49
2022-10-13T09:44:20.076Z,46.11
2022-10-13T09:46:55.320Z,45.55
2022-10-13T09:49:33.207Z,45.21
2022-10-13T09:52:21.846Z,44.79
2022-10-13T09:54:53.929Z,44.55
2022-10-13T09:57:26.837Z,44.19
2022-10-13T09:59:58.947Z,43.97
2022-10-13T10:02:41.008Z,44.27
2022-10-13T10:05:28.824Z,43.09
2022-10-13T10:08:22.583Z,43.11
2022-10-13T10:10:56.721Z,42.96
2022-10-13T10:13:25.308Z,42.83
2022-10-13T10:16:25.433Z,43.32
2022-10-13T10:19:01.930Z,41.75
2022-10-13T10:21:47.775Z,41.06
2022-10-13T10:24:38.890Z,41.32
2022-10-13T10:27:26.717Z,40.05
2022-10-13T10:30:02.117Z,41.39
2022-10-13T10:32:37.848Z,40.54
2022-10-13T10:35:12.352Z,40.05
2022-10-13T10:38:01.937Z,40.79
2022-10-13T10:40:40.537Z,40.51
2022-10-13T10:43:22.552Z,39.82
2022-10-13T10:45:49.503Z,40.69
2022-10-13T10:48:21.668Z,39.86
2022-10-13T10:50:51.292Z,39.86
2022-10-13T10:53:40.248Z,41.00
2022-10-13T10:56:17.733Z,40.29
2022-10-13T10:58:56.446Z,41.38
2022-10-13T11:01:23.333Z,40.80
2022-10-13T11:04:06.109Z,40.13
2022-10-13T11:06:36.530Z,39.84
2022-10-13T11:09:06.591Z,36.68
2022-10-13T11:11:39.742Z,37.50
2022-10-13T11:14:06.470Z,36.59
2022-10-13T11:16:59.121Z,36.92
2022-10-13T11:19:37.126Z,36.55
2022-10-13T11:22:03.890Z,34.43
2022-10-13T11:24:33.590Z,34.54
2022-10-13T11:27:09.543Z,35.00
2022-10-13T11:29:45.310Z,33.29
2022-10-13T11:32:27.179Z,32.59
2022-10-13T11:35:21.390Z,33.76
2022-10-13T11:38:08.784Z,33.68
2022-10-13T11:41:04.313Z,33.71
2022-10-13T11:43:47.025Z,33.00
2022-10-13T11:46:26.353Z,34.64
2022-10-13T11:48:56.095Z,31.02
2022-10-13T11:51:38.713Z,31.53
2022-10-13T11:54:08.727Z,33.74
2022-10-13T11:56:53.654Z,33.57
2022-10-13T11:59:33.950Z,32.69
2022-10-13T12:02:15.219Z,33.56
2022-10-13T12:04:59.687Z,32.59
2022-10-13T12:07:32.784Z,31.72
2022-10-13T12:09:59.611Z,30.09
2022-10-13T12:12:26.747Z,29.45
2022-10-13T12:14:58.639Z,28.18
2022-10-13T12:17:30.329Z,28.87
2022-10-13T12:20:00.402Z,26.98
2022-10-13T12:22:28.658Z,27.14
2022-10-13T12:25:04.840Z,25.76
2022-10-13T12:27:41.619Z,27.26
2022-10-13T12:30:22.490Z,28.87
2022-10-13T12:32:51.656Z,29.93
2022-10-13T12:35:22.827Z,30.65
2022-10-13T12:37:49.847Z,30.61
2022-10-13T12:40:19.071Z,30.33
2022-10-13T12:42:47.047Z,30.52
2022-10-13T12:45:19.863Z,30.85
2022-10-13T12:47:46.568Z,28.88
2022-10-13T12:50:25.719Z,28.74
2022-10-13T12:52:55.201Z,29.63
2022-10-13T12:55:23.581Z,29.21
2022-10-13T12:57:51.875Z,29.69
2022-10-13T13:00:30.185Z,31.08
2022-10-13T13:03:01.503Z,30.71
2022-10-13T13:05:47.907Z,31.70
2022-10-13T13:08:25.623Z,32.51
2022-10-13T13:11:22.956Z,33.05
2022-10-13T13:13:49.834Z,33.15
2022-10-13T13:16:21.975Z,32.67
2022-10-13T13:18:50.792Z,32.35
2022-10-13T13:21:19.472Z,33.00
2022-10-13T13:23:51.288Z,33.15
2022-10-13T13:26:23.114Z,32.02
2022-10-13T13:28:52.548Z,31.86
2022-10-13T13:31:21.557Z,32.20
2022-10-13T13:33:49.100Z,32.36
2022-10-13T13:36:18.138Z,33.02
2022-10-13T13:38:44.995Z,33.22
2022-10-13T13:41:12.658Z,33.11
2022-10-13T13:43:40.310Z,33.02
2022-10-13T13:46:14.844Z,33.59
2022-10-13T13:48:41.557Z,33.34
2022-10-13T13:51:09.948Z,34.09
2022-10-13T13:53:37.683Z,34.16
2022-10-13T13:56:04.770Z,33.81
2022-10-13T13:58:31.558Z,33.85
2022-10-13T14:00:59.991Z,33.92
2022-10-13T14:03:26.794Z,33.82
2022-10-13T14:05:53.605Z,34.52
2022-10-13T14:08:20.411Z,34.40
2022-10-13T14:10:47.183Z,34.66
2022-10-13T14:13:14.146Z,35.08
2022-10-13T14:15:41.031Z,35.04
2022-10-13T14:18:07.850Z,34.69
2022-10-13T14:20:34.718Z,34.92
2022-10-13T14:23:33.811Z,34.80
2022-10-13T14:26:04.718Z,35.05
2022-10-13T14:28:31.629Z,35.66
2022-10-13T14:30:58.533Z,37.02
2022-10-13T14:33:25.390Z,38.14
2022-10-13T14:35:59.870Z,38.08
2022-10-13T14:38:26.737Z,38.66
2022-10-13T14:40:53.485Z,38.84
2022-10-13T14:43:21.677Z,39.20
2022-10-13T14:45:48.464Z,39.72
2022-10-13T14:48:15.248Z,40.27
2022-10-13T14:50:42.084Z,41.20
2022-10-13T14:53:08.914Z,41.47
2022-10-13T14:55:35.723Z,41.56
2022-10-13T14:58:02.780Z,41.83
2022-10-13T15:00:30.039Z,42.37
2022-10-13T15:02:56.772Z,42.93
2022-10-13T15:05:23.610Z,43.08
2022-10-13T15:07:50.477Z,43.28
2022-10-13T15:10:17.432Z,43.36
2022-10-13T15:12:44.371Z,43.65
2022-10-13T15:15:13.457Z,43.89
2022-10-13T15:17:40.295Z,44.24
2022-10-13T15:20:07.970Z,44.77
2022-10-13T15:22:34.781Z,44.54
2022-10-13T15:25:01.664Z,44.82
2022-10-13T15:27:28.516Z,45.23
2022-10-13T15:29:55.480Z,45.55
2022-10-13T15:32:22.495Z,46.18
2022-10-13T15:34:49.559Z,46.06
2022-10-13T15:37:16.363Z,46.61
2022-10-13T15:39:43.612Z,46.69
2022-10-13T15:42:30.724Z,47.04
2022-10-13T15:45:09.572Z,47.48
2022-10-13T15:47:37.561Z,47.57
2022-10-13T15:50:04.791Z,47.98
2022-10-13T15:52:34.907Z,47.86
2022-10-13T15:55:02.476Z,48.04
2022-10-13T15:57:31.566Z,48.06
2022-10-13T15:59:58.530Z,47.71
2022-10-13T16:02:25.674Z,47.47
2022-10-13T16:04:52.514Z,47.54
2022-10-13T16:07:19.361Z,48.47
2022-10-13T16:09:46.509Z,48.35
2022-10-13T16:12:13.280Z,48.71
2022-10-13T16:14:40.278Z,49.00
2022-10-13T16:17:07.128Z,48.95
2022-10-13T16:19:33.898Z,48.66
2022-10-13T16:22:00.717Z,48.82
2022-10-13T16:24:29.489Z,49.50
2022-10-13T16:26:59.017Z,49.94
2022-10-13T16:29:25.877Z,49.18
2022-10-13T16:31:52.803Z,49.20
2022-10-13T16:34:20.373Z,49.40
2022-10-13T16:36:47.209Z,49.73
2022-10-13T16:39:14.136Z,49.68
2022-10-13T16:41:43.898Z,49.31
2022-10-13T16:44:10.914Z,49.63
2022-10-13T16:46:37.989Z,49.24
2022-10-13T16:49:04.779Z,49.61
2022-10-13T16:51:34.819Z,50.33
2022-10-13T16:54:04.365Z,50.55
2022-10-13T16:56:32.072Z,50.55
2022-10-13T16:59:11.094Z,50.50
2022-10-13T17:01:38.038Z,50.58
2022-10-13T17:04:05.081Z,51.19
2022-10-13T17:06:32.085Z,51.02
2022-10-13T17:09:05.366Z,51.22
2022-10-13T17:11:34.883Z,51.56
2022-10-13T17:14:02.197Z,51.68
2022-10-13T17:16:29.224Z,52.27
2022-10-13T17:18:56.330Z,52.15
2022-10-13T17:21:23.319Z,52.04
2022-10-13T17:23:50.446Z,52.06
2022-10-13T17:26:18.443Z,52.43
2022-10-13T17:28:45.881Z,52.82
2022-10-13T17:31:18.687Z,53.45
2022-10-13T17:33:46.205Z,53.50
2022-10-13T17:36:16.082Z,53.69
2022-10-13T17:38:43.261Z,54.21
2022-10-13T17:41:11.296Z,54.44
2022-10-13T17:43:39.367Z,54.81
2022-10-13T17:46:37.806Z,54.81
2022-10-13T17:49:07.043Z,54.92
2022-10-13T17:51:34.235Z,54.94
2022-10-13T17:54:01.272Z,54.96
2022-10-13T17:56:29.042Z,54.86
2022-10-13T17:58:56.153Z,55.38
2022-10-13T18:01:31.857Z,55.59
2022-10-13T18:04:12.793Z,55.41
2022-10-13T18:06:41.071Z,55.66
2022-10-13T18:09:25.121Z,55.60
2022-10-13T18:11:53.913Z,55.67
2022-10-13T18:14:22.307Z,55.46
2022-10-13T18:16:53.127Z,55.91
2022-10-13T18:19:21.343Z,55.90
2022-10-13T18:21:49.064Z,56.20
2022-10-13T18:24:15.928Z,55.82
2022-10-13T18:26:42.740Z,56.48
2022-10-13T18:29:11.942Z,56.44
2022-10-13T18:31:41.150Z,56.26
2022-10-13T18:34:11.846Z,56.21
2022-10-13T18:36:41.712Z,56.50
2022-10-13T18:39:13.966Z,56.53
2022-10-13T18:41:40.908Z,56.69
2022-10-13T18:44:08.248Z,56.65
2022-10-13T18:46:37.483Z,56.43
2022-10-13T18:49:05.809Z,57.10
2022-10-13T18:51:36.203Z,57.07
2022-10-13T18:54:06.001Z,57.04
2022-10-13T18:56:33.955Z,56.83
2022-10-13T18:59:01.951Z,56.78
2022-10-13T19:01:33.992Z,57.19
2022-10-13T19:04:01.057Z,57.41
2022-10-13T19:06:28.888Z,57.49
2022-10-13T19:09:00.651Z,57.40
2022-10-13T19:11:28.712Z,57.34
2022-10-13T19:13:55.879Z,57.41
2022-10-13T19:16:24.958Z,57.79
2022-10-13T19:18:52.431Z,57.91
2022-10-13T19:21:20.797Z,58.53
2022-10-13T19:23:47.953Z,58.19
2022-10-13T19:26:20.683Z,58.41
2022-10-13T19:28:48.077Z,58.54
2022-10-13T19:31:22.291Z,58.83
2022-10-13T19:33:50.807Z,58.65
2022-10-13T19:36:30.229Z,59.09
2022-10-13T19:38:58.109Z,59.76
2022-10-13T19:41:27.030Z,59.64
2022-10-13T19:43:55.172Z,59.72
2022-10-13T19:46:22.649Z,59.42
2022-10-13T19:48:49.474Z,59.72
2022-10-13T19:51:16.605Z,59.97
2022-10-13T19:53:46.281Z,60.04
2022-10-13T19:56:25.784Z,59.91
2022-10-13T19:58:54.754Z,60.13
2022-10-13T20:01:24.831Z,60.28
2022-10-13T20:03:56.144Z,60.17
2022-10-13T20:06:23.323Z,60.23
2022-10-13T20:08:53.389Z,59.75
2022-10-13T20:11:23.898Z,60.17
2022-10-13T20:13:52.693Z,60.58
2022-10-13T20:16:22.582Z,60.81
2022-10-13T20:18:57.653Z,61.35
2022-10-13T20:21:25.585Z,61.02
2022-10-13T20:23:53.002Z,61.23
2022-10-13T20:26:21.189Z,61.36
2022-10-13T20:28:50.703Z,61.56
2022-10-13T20:31:19.895Z,61.47
2022-10-13T20:33:47.753Z,61.92
2022-10-13T20:36:17.242Z,62.49
2022-10-13T20:38:44.350Z,62.63
2022-10-13T20:41:18.809Z,62.68
2022-10-13T20:43:47.493Z,63.10
2022-10-13T20:46:15.148Z,62.97
2022-10-13T20:49:09.197Z,63.33
2022-10-13T20:51:29.657Z,63.19
2022-10-13T20:53:56.590Z,63.46
2022-10-13T20:56:28.098Z,63.79
2022-10-13T20:58:54.948Z,63.74
2022-10-13T21:01:22.887Z,64.07
2022-10-13T21:03:54.158Z,63.77
2022-10-13T21:06:22.795Z,63.83
2022-10-13T21:08:49.616Z,64.19
2022-10-13T21:11:18.354Z,63.76
2022-10-13T21:13:45.548Z,64.08
2022-10-13T21:16:17.465Z,64.21
2022-10-13T21:18:48.800Z,64.57
2022-10-13T21:21:18.379Z,64.83
2022-10-13T21:23:45.441Z,64.79
2022-10-13T21:26:13.019Z,65.40
2022-10-13T21:28:42.211Z,65.68
2022-10-13T21:31:11.927Z,65.44
2022-10-13T21:33:40.170Z,65.84
2022-10-13T21:36:12.303Z,65.43
2022-10-13T21:38:40.099Z,65.56
2022-10-13T21:41:08.319Z,65.73
2022-10-13T21:43:35.923Z,66.04
2022-10-13T21:46:23.896Z,66.08
2022-10-13T21:48:53.519Z,65.97
2022-10-13T21:51:27.940Z,66.04
2022-10-13T21:53:57.736Z,66.20
2022-10-13T21:56:26.233Z,66.91
2022-10-13T21:58:53.853Z,66.86
2022-10-13T22:01:21.078Z,67.05
2022-10-13T22:03:52.386Z,67.32
2022-10-13T22:06:20.249Z,66.89
2022-10-13T22:08:50.087Z,67.43
2022-10-13T22:11:18.336Z,67.68
2022-10-13T22:13:45.675Z,68.09
2022-10-13T22:16:18.684Z,67.96
2022-10-13T22:18:46.082Z,67.98
2022-10-13T22:21:16.711Z,68.04
2022-10-13T22:23:49.531Z,68.27
2022-10-13T22:26:18.804Z,68.01
2022-10-13T22:28:45.961Z,68.31
2022-10-13T22:31:13.561Z,68.27
2022-10-13T22:33:42.291Z,68.49
2022-10-13T22:36:12.407Z,68.84
2022-10-13T22:38:39.466Z,68.83
2022-10-13T22:41:07.583Z,68.83
2022-10-13T22:43:35.530Z,68.91
2022-10-13T22:46:02.591Z,69.30
2022-10-13T22:48:29.456Z,69.33
2022-10-13T22:50:56.530Z,69.09
2022-10-13T22:53:23.397Z,69.20
2022-10-13T22:55:50.230Z,68.92
2022-10-13T22:58:17.182Z,69.03
2022-10-13T23:00:44.396Z,70.36
2022-10-13T23:03:14.772Z,69.84
2022-10-13T23:05:42.485Z,69.56
2022-10-13T23:08:09.867Z,69.38
2022-10-13T23:10:37.130Z,69.75
2022-10-13T23:13:05.177Z,69.59
2022-10-13T23:15:32.450Z,69.43
2022-10-13T23:17:59.255Z,69.84
2022-10-13T23:20:26.086Z,69.84
2022-10-13T23:22:52.849Z,69.39
2022-10-13T23:25:19.686Z,70.53
2022-10-13T23:27:46.491Z,70.14
2022-10-13T23:30:13.502Z,70.06
2022-10-13T23:32:40.300Z,71.13
2022-10-13T23:35:07.315Z,71.18
2022-10-13T23:37:34.126Z,70.54
2022-10-13T23:40:00.991Z,70.55
2022-10-13T23:42:27.959Z,71.17
2022-10-13T23:44:54.858Z,71.59
2022-10-13T23:47:21.967Z,71.34
2022-10-13T23:49:49.003Z,71.34
2022-10-13T23:52:15.778Z,71.45
2022-10-13T23:54:42.650Z,71.10
2022-10-13T23:57:09.521Z,71.33
2022-10-13T23:59:36.402Z,71.82
